createdAt,value
2018-07-16T03:55:32.025Z,10
2018-07-16T03:55:52.295Z,10
2018-07-16T03:56:12.330Z,10
2018-07-16T03:56:32.482Z,10
2018-07-16T03:56:52.671Z,10
2018-07-16T03:57:12.868Z,10
2018-07-16T03:57:33.059Z,10
2018-07-16T03:57:53.215Z,10
2018-07-16T04:05:08.097Z,10
2018-07-16T04:05:28.260Z,10
2018-07-16T04:07:13.415Z,10
2018-07-16T04:15:49.193Z,15
2018-07-16T04:16:09.338Z,15
2018-07-16T04:18:54.934Z,15
2018-07-16T04:19:15.140Z,15
2018-07-16T04:21:35.976Z,15
2018-07-16T04:21:56.175Z,15
2018-07-16T04:22:16.367Z,15
2018-07-16T04:22:36.539Z,15
2018-07-16T04:22:56.748Z,15
2018-07-16T04:36:20.613Z,15
2018-07-16T04:36:40.848Z,15
2018-07-16T04:39:44.917Z,20
2018-07-16T04:40:05.108Z,20
2018-07-16T04:40:25.334Z,20
2018-07-16T04:40:45.551Z,20
2018-07-16T04:41:05.804Z,20
2018-07-16T04:47:04.516Z,20
2018-07-16T04:47:24.714Z,20
2018-07-16T05:05:26.640Z,20
2018-07-16T05:09:46.239Z,20
2018-07-16T05:26:59.946Z,20
2018-07-16T05:27:20.161Z,20
2018-07-16T05:31:32.443Z,20
2018-07-16T05:31:52.818Z,20
2018-07-16T05:34:50.458Z,20
2018-07-16T05:35:10.726Z,20
2018-07-16T05:38:14.729Z,25
2018-07-16T05:38:34.869Z,25
2018-07-16T05:40:18.494Z,25
2018-07-16T05:40:38.711Z,25
2018-07-16T05:41:45.219Z,25
2018-07-16T05:42:05.368Z,25
2018-07-16T05:42:59.525Z,25
2018-07-16T05:43:19.692Z,25
2018-07-16T05:44:26.258Z,25
2018-07-16T05:44:46.450Z,25
2018-07-16T05:45:40.453Z,25
2018-07-16T05:46:00.679Z,25
2018-07-16T05:46:20.845Z,25
2018-07-16T05:46:41.035Z,25
2018-07-16T05:47:01.225Z,25
2018-07-16T05:47:21.377Z,25
2018-07-16T05:47:41.539Z,25
2018-07-16T05:48:01.688Z,25
2018-07-16T05:48:21.848Z,25
2018-07-16T05:48:42.000Z,25
2018-07-16T05:49:02.209Z,25
2018-07-16T05:49:22.367Z,25
2018-07-16T05:49:42.547Z,25
2018-07-16T05:50:02.725Z,25
2018-07-16T05:50:22.923Z,25
2018-07-16T05:50:43.106Z,25
2018-07-16T05:51:03.307Z,25
2018-07-16T05:51:23.509Z,25
2018-07-16T05:51:43.687Z,25
2018-07-16T05:52:03.868Z,25
2018-07-16T05:52:24.022Z,25
2018-07-16T05:52:44.242Z,25
2018-07-16T05:53:04.440Z,25
2018-07-16T05:53:24.640Z,25
2018-07-16T05:53:44.833Z,25
2018-07-16T05:54:04.991Z,25
2018-07-16T05:54:25.171Z,25
2018-07-16T05:54:45.396Z,25
2018-07-16T05:55:05.573Z,25
2018-07-16T05:55:25.778Z,25
2018-07-16T05:55:46.030Z,25
2018-07-16T05:56:06.182Z,25
2018-07-16T05:56:26.367Z,25
2018-07-16T05:56:46.587Z,25
2018-07-16T05:57:06.738Z,25
2018-07-16T05:57:26.967Z,25
2018-07-16T05:57:47.171Z,25
2018-07-16T05:58:07.338Z,25
2018-07-16T05:58:27.510Z,25
2018-07-16T05:58:47.704Z,25
2018-07-16T05:59:07.902Z,25
2018-07-16T05:59:28.060Z,25
2018-07-16T05:59:48.293Z,25
2018-07-16T06:00:08.496Z,25
2018-07-16T06:00:28.692Z,25
2018-07-16T06:00:48.898Z,25
2018-07-16T06:01:09.056Z,25
2018-07-16T06:01:29.208Z,25
2018-07-16T06:01:49.348Z,25
2018-07-16T06:02:09.536Z,25
2018-07-16T06:02:29.710Z,25
2018-07-16T06:02:49.859Z,25
2018-07-16T06:03:10.042Z,25
2018-07-16T06:03:30.248Z,25
2018-07-16T06:03:50.420Z,25
2018-07-16T06:04:10.556Z,25
2018-07-16T06:04:30.755Z,25
2018-07-16T06:04:50.932Z,25
2018-07-16T06:05:11.079Z,25
2018-07-16T06:05:31.241Z,25
2018-07-16T06:05:51.427Z,25
2018-07-16T06:06:11.585Z,25
2018-07-16T06:06:31.761Z,25
2018-07-16T06:06:51.896Z,25
2018-07-16T06:07:12.059Z,25
2018-07-16T06:07:32.263Z,25
2018-07-16T06:07:52.431Z,25
2018-07-16T06:08:12.625Z,25
2018-07-16T06:08:32.858Z,25
2018-07-16T06:08:53.381Z,25
2018-07-16T06:09:13.466Z,25
2018-07-16T06:09:33.681Z,25
2018-07-16T06:09:53.831Z,25
2018-07-16T06:10:14.044Z,25
2018-07-16T06:10:34.225Z,25
2018-07-16T06:10:54.356Z,25
2018-07-16T06:11:14.500Z,25
2018-07-16T06:11:34.712Z,25
2018-07-16T06:11:54.885Z,25
2018-07-16T06:12:15.169Z,25
2018-07-16T06:12:35.337Z,25
2018-07-16T06:12:55.508Z,25
2018-07-16T06:13:15.844Z,25
2018-07-16T06:13:36.052Z,25
2018-07-16T06:13:56.212Z,25
2018-07-16T06:14:16.390Z,25
2018-07-16T06:14:36.649Z,25
2018-07-16T06:14:56.766Z,25
2018-07-16T06:15:17.075Z,25
2018-07-16T06:15:37.356Z,25
2018-07-16T06:15:57.523Z,25
2018-07-16T06:16:17.677Z,25
2018-07-16T06:16:37.862Z,25
2018-07-16T06:16:57.993Z,25
2018-07-16T06:17:18.147Z,25
2018-07-16T06:17:38.299Z,25
2018-07-16T06:17:58.480Z,25
2018-07-16T06:18:18.634Z,25
2018-07-16T06:18:38.824Z,25
2018-07-16T06:18:58.964Z,25
2018-07-16T06:19:19.125Z,25
2018-07-16T06:19:39.289Z,25
2018-07-16T06:19:59.469Z,25
2018-07-16T06:20:19.619Z,25
2018-07-16T06:20:39.767Z,25
2018-07-16T06:20:59.926Z,25
2018-07-16T06:21:20.099Z,25
2018-07-16T06:21:40.255Z,25
2018-07-16T06:22:00.433Z,25
2018-07-16T06:22:20.579Z,25
2018-07-16T06:22:40.734Z,25
2018-07-16T06:23:00.924Z,25
2018-07-16T06:23:21.095Z,25
2018-07-16T06:23:41.248Z,25
2018-07-16T06:24:01.455Z,25
2018-07-16T06:24:21.731Z,25
2018-07-16T06:24:41.893Z,25
2018-07-16T06:25:02.078Z,25
2018-07-16T06:25:22.251Z,25
2018-07-16T06:25:42.411Z,25
2018-07-16T06:26:02.541Z,25
2018-07-16T06:26:22.687Z,25
2018-07-16T06:26:42.828Z,25
2018-07-16T06:27:02.996Z,25
2018-07-16T06:27:23.152Z,25
2018-07-16T06:27:43.288Z,25
2018-07-16T06:28:03.488Z,25
2018-07-16T06:28:23.600Z,25
2018-07-16T06:28:43.784Z,25
2018-07-16T06:29:03.948Z,25
2018-07-16T06:29:24.099Z,25
2018-07-16T06:29:44.271Z,25
2018-07-16T06:30:04.423Z,25
2018-07-16T06:30:24.586Z,25
2018-07-16T06:30:44.754Z,25
2018-07-16T06:31:04.926Z,25
2018-07-16T06:31:25.108Z,25
2018-07-16T06:31:45.232Z,25
2018-07-16T06:32:05.393Z,25
2018-07-16T06:32:25.599Z,25
2018-07-16T06:32:45.698Z,25
2018-07-16T06:33:05.873Z,25
2018-07-16T06:33:25.991Z,25
2018-07-16T06:33:46.147Z,25
2018-07-16T06:34:06.312Z,25
2018-07-16T06:34:26.510Z,25
2018-07-16T06:34:46.693Z,25
2018-07-16T06:35:06.844Z,25
2018-07-16T06:35:27.012Z,25
2018-07-16T06:35:47.192Z,25
2018-07-16T06:36:07.342Z,25
2018-07-16T06:36:27.600Z,25
2018-07-16T06:36:47.762Z,25
2018-07-16T06:37:07.891Z,25
2018-07-16T06:37:28.044Z,25
2018-07-16T06:37:48.209Z,25
2018-07-16T06:38:08.369Z,25
2018-07-16T06:38:28.550Z,25
2018-07-16T06:38:48.685Z,25
2018-07-16T06:39:08.837Z,25
2018-07-16T06:39:29.007Z,25
2018-07-16T06:39:49.159Z,25
2018-07-16T06:40:09.339Z,25
2018-07-16T06:40:29.670Z,25
2018-07-16T06:40:49.813Z,25
2018-07-16T06:41:09.941Z,25
2018-07-16T06:41:30.355Z,25
2018-07-16T06:41:51.141Z,25
2018-07-16T06:42:11.290Z,25
2018-07-16T06:42:31.464Z,25
2018-07-16T06:42:51.623Z,25
2018-07-16T06:43:11.802Z,25
2018-07-16T06:43:31.993Z,25
2018-07-16T06:43:52.247Z,30
2018-07-16T06:44:12.379Z,30
2018-07-16T06:44:32.570Z,30
2018-07-16T06:44:52.692Z,30
2018-07-16T06:45:12.824Z,30
2018-07-16T06:45:33.020Z,30
2018-07-16T06:45:53.180Z,30
2018-07-16T06:46:13.311Z,30
2018-07-16T06:46:33.534Z,30
2018-07-16T06:46:53.739Z,30
2018-07-16T06:47:13.898Z,30
2018-07-16T06:47:34.044Z,30
2018-07-16T06:47:54.295Z,30
2018-07-16T06:48:14.393Z,30
2018-07-16T06:48:34.562Z,30
2018-07-16T06:48:54.757Z,30
2018-07-16T06:49:14.936Z,30
2018-07-16T06:49:35.188Z,30
2018-07-16T06:49:55.347Z,30
2018-07-16T06:50:15.560Z,30
2018-07-16T06:50:35.662Z,30
2018-07-16T06:50:55.821Z,30
2018-07-16T06:51:15.993Z,30
2018-07-16T06:51:36.176Z,30
2018-07-16T06:51:56.511Z,30
2018-07-16T06:52:16.711Z,30
2018-07-16T06:52:36.907Z,30
2018-07-16T06:52:57.038Z,30
2018-07-16T06:53:17.198Z,30
2018-07-16T06:53:37.349Z,30
2018-07-16T06:53:57.507Z,30
2018-07-16T06:54:17.666Z,30
2018-07-16T06:54:37.844Z,30
2018-07-16T06:54:58.060Z,30
2018-07-16T06:55:18.239Z,30
2018-07-16T06:55:38.439Z,30
2018-07-16T06:55:58.638Z,30
2018-07-16T06:56:18.802Z,30
2018-07-16T06:56:38.976Z,30
2018-07-16T06:56:59.133Z,30
2018-07-16T06:57:19.256Z,30
2018-07-16T06:57:39.476Z,30
2018-07-16T06:57:59.631Z,30
2018-07-16T06:58:19.799Z,30
2018-07-16T06:58:39.966Z,30
2018-07-16T06:59:00.134Z,30
2018-07-16T06:59:20.330Z,30
2018-07-16T06:59:40.516Z,30
2018-07-16T07:00:00.652Z,30
2018-07-16T07:00:20.784Z,30
2018-07-16T07:00:40.938Z,30
2018-07-16T07:01:01.085Z,30
2018-07-16T07:01:21.269Z,30
2018-07-16T07:01:41.444Z,30
2018-07-16T07:02:01.622Z,30
2018-07-16T07:02:21.837Z,30
2018-07-16T07:02:42.010Z,30
2018-07-16T07:03:02.147Z,30
2018-07-16T07:03:22.423Z,30
2018-07-16T07:03:42.588Z,30
2018-07-16T07:04:02.767Z,30
2018-07-16T07:04:22.956Z,30
2018-07-16T07:04:43.147Z,30
2018-07-16T07:05:03.324Z,30
2018-07-16T07:05:23.504Z,30
2018-07-16T07:05:43.716Z,30
2018-07-16T07:06:03.890Z,30
2018-07-16T07:06:24.030Z,30
2018-07-16T07:06:44.207Z,30
2018-07-16T07:07:04.371Z,30
2018-07-16T07:07:24.534Z,30
2018-07-16T07:07:44.712Z,30
2018-07-16T07:08:04.898Z,30
2018-07-16T07:08:25.100Z,30
2018-07-16T07:08:45.260Z,30
2018-07-16T07:09:05.406Z,30
2018-07-16T07:09:25.546Z,30
2018-07-16T07:09:45.788Z,30
2018-07-16T07:10:06.048Z,30
2018-07-16T07:10:26.207Z,30
2018-07-16T07:10:46.386Z,30
2018-07-16T07:11:06.574Z,30
2018-07-16T07:11:26.730Z,30
2018-07-16T07:11:46.882Z,35
2018-07-16T07:12:07.019Z,35
2018-07-16T07:12:27.155Z,35
2018-07-16T07:12:47.310Z,35
2018-07-16T07:13:07.447Z,35
2018-07-16T07:13:27.600Z,35
2018-07-16T07:13:47.753Z,35
2018-07-16T07:14:07.968Z,35
2018-07-16T07:14:28.142Z,35
2018-07-16T07:14:48.300Z,35
2018-07-16T07:15:08.468Z,35
2018-07-16T07:15:28.669Z,35
2018-07-16T07:15:48.862Z,35
2018-07-16T07:16:09.028Z,35
2018-07-16T07:16:29.212Z,35
2018-07-16T07:16:49.387Z,35
2018-07-16T07:17:09.538Z,35
2018-07-16T07:17:29.683Z,35
2018-07-16T07:17:49.829Z,35
2018-07-16T07:18:10.085Z,35
2018-07-16T07:18:30.182Z,35
2018-07-16T07:18:50.312Z,35
2018-07-16T07:19:10.456Z,35
2018-07-16T07:19:30.582Z,35
2018-07-16T07:19:50.755Z,35
2018-07-16T07:20:10.906Z,35
2018-07-16T07:20:31.086Z,35
2018-07-16T07:20:51.263Z,35
2018-07-16T07:21:11.416Z,35
2018-07-16T07:21:31.595Z,35
2018-07-16T07:21:51.778Z,35
2018-07-16T07:22:11.981Z,35
2018-07-16T07:22:32.150Z,35
2018-07-16T07:22:52.305Z,35
2018-07-16T07:23:12.449Z,35
2018-07-16T07:23:32.581Z,35
2018-07-16T07:23:52.797Z,35
2018-07-16T07:24:12.951Z,35
2018-07-16T07:24:33.119Z,35
2018-07-16T07:24:53.276Z,35
2018-07-16T07:25:13.428Z,35
2018-07-16T07:25:33.674Z,35
2018-07-16T07:25:53.790Z,35
2018-07-16T07:26:14.327Z,35
2018-07-16T07:26:34.505Z,35
2018-07-16T07:26:55.035Z,35
2018-07-16T07:27:15.216Z,35
2018-07-16T07:27:35.401Z,35
2018-07-16T07:27:55.753Z,35
2018-07-16T07:28:16.377Z,35
2018-07-16T07:28:36.625Z,35
2018-07-16T07:28:56.769Z,35
2018-07-16T07:29:16.921Z,35
2018-07-16T07:29:37.095Z,35
2018-07-16T07:29:57.230Z,35
2018-07-16T07:30:17.421Z,35
2018-07-16T07:30:37.614Z,35
2018-07-16T07:30:57.766Z,35
2018-07-16T07:31:17.973Z,35
2018-07-16T07:31:38.339Z,35
2018-07-16T07:31:58.481Z,35
2018-07-16T07:32:18.674Z,35
2018-07-16T07:32:38.802Z,35
2018-07-16T07:32:59.051Z,35
2018-07-16T07:33:19.225Z,35
2018-07-16T07:33:39.436Z,35
2018-07-16T07:33:59.561Z,35
2018-07-16T07:34:19.738Z,35
2018-07-16T07:34:39.912Z,35
2018-07-16T07:35:00.067Z,35
2018-07-16T07:35:20.308Z,35
2018-07-16T07:35:40.521Z,35
2018-07-16T07:36:01.085Z,35
2018-07-16T07:36:21.143Z,35
2018-07-16T07:36:41.298Z,35
2018-07-16T07:37:01.473Z,35
2018-07-16T07:37:21.603Z,35
2018-07-16T07:37:41.780Z,35
2018-07-16T07:38:01.987Z,30
2018-07-16T07:38:22.160Z,35
2018-07-16T07:38:42.327Z,35
2018-07-16T07:39:02.470Z,30
2018-07-16T07:39:22.669Z,30
2018-07-16T07:39:42.835Z,30
2018-07-16T07:40:03.017Z,30
2018-07-16T07:40:23.239Z,30
2018-07-16T07:40:43.395Z,30
2018-07-16T07:41:03.545Z,30
2018-07-16T07:41:23.684Z,30
2018-07-16T07:41:43.817Z,30
2018-07-16T07:42:03.978Z,30
2018-07-16T07:42:24.132Z,30
2018-07-16T07:42:44.296Z,30
2018-07-16T07:43:04.448Z,30
2018-07-16T07:43:24.600Z,30
2018-07-16T07:43:44.774Z,30
2018-07-16T07:44:04.917Z,30
2018-07-16T07:44:25.074Z,30
2018-07-16T07:44:45.283Z,30
2018-07-16T07:45:05.433Z,30
2018-07-16T07:45:25.592Z,30
2018-07-16T07:45:45.781Z,30
2018-07-16T07:46:06.007Z,30
2018-07-16T07:46:26.170Z,30
2018-07-16T07:46:46.326Z,30
2018-07-16T07:47:06.513Z,30
2018-07-16T07:47:26.656Z,30
2018-07-16T07:47:46.849Z,30
2018-07-16T07:48:06.944Z,30
2018-07-16T07:48:27.151Z,30
2018-07-16T07:48:47.286Z,30
2018-07-16T07:49:07.482Z,30
2018-07-16T07:49:27.673Z,30
2018-07-16T07:49:47.832Z,30
2018-07-16T07:50:07.987Z,30
2018-07-16T07:50:28.134Z,30
2018-07-16T07:50:48.276Z,30
2018-07-16T07:51:08.468Z,30
2018-07-16T07:51:28.632Z,30
2018-07-16T07:51:48.808Z,30
2018-07-16T07:52:09.079Z,30
2018-07-16T07:52:29.242Z,30
2018-07-16T07:52:49.405Z,30
2018-07-16T07:53:09.578Z,30
2018-07-16T07:53:29.742Z,30
2018-07-16T07:53:49.929Z,30
2018-07-16T07:54:10.248Z,30
2018-07-16T07:54:30.437Z,30
2018-07-16T07:54:50.575Z,30
2018-07-16T07:55:10.813Z,30
2018-07-16T07:55:31.662Z,30
2018-07-16T07:55:51.792Z,30
2018-07-16T07:56:11.979Z,30
2018-07-16T07:56:32.115Z,30
2018-07-16T07:56:52.325Z,30
2018-07-16T07:57:12.514Z,30
2018-07-16T07:57:32.727Z,30
2018-07-16T07:57:52.861Z,30
2018-07-16T07:58:13.030Z,30
2018-07-16T07:58:33.229Z,30
2018-07-16T07:58:53.395Z,35
2018-07-16T07:59:13.535Z,35
2018-07-16T07:59:33.710Z,35
2018-07-16T07:59:53.855Z,35
2018-07-16T08:00:14.069Z,35
2018-07-16T08:00:34.240Z,35
2018-07-16T08:00:54.398Z,35
2018-07-16T08:01:14.571Z,35
2018-07-16T08:01:34.715Z,35
2018-07-16T08:01:54.861Z,35
2018-07-16T08:02:15.026Z,35
2018-07-16T08:02:35.234Z,35
2018-07-16T08:02:55.391Z,35
2018-07-16T08:03:15.629Z,35
2018-07-16T08:03:35.747Z,35
2018-07-16T08:03:55.934Z,35
2018-07-16T08:04:16.131Z,35
2018-07-16T08:04:36.279Z,35
2018-07-16T08:04:56.438Z,35
2018-07-16T08:05:16.591Z,35
2018-07-16T08:05:36.767Z,35
2018-07-16T08:05:56.948Z,35
2018-07-16T08:06:17.136Z,35
2018-07-16T08:06:37.285Z,35
2018-07-16T08:06:57.431Z,35
2018-07-16T08:07:17.623Z,35
2018-07-16T08:07:37.776Z,35
2018-07-16T08:07:57.935Z,35
2018-07-16T08:08:18.099Z,35
2018-07-16T08:08:38.328Z,35
2018-07-16T08:08:58.494Z,35
2018-07-16T08:09:18.656Z,35
2018-07-16T08:09:38.858Z,35
2018-07-16T08:09:59.010Z,35
2018-07-16T08:10:19.161Z,35
2018-07-16T08:10:39.347Z,35
2018-07-16T08:10:59.514Z,35
2018-07-16T08:11:19.667Z,35
2018-07-16T08:11:39.831Z,35
2018-07-16T08:11:59.990Z,35
2018-07-16T08:12:20.131Z,35
2018-07-16T08:12:40.292Z,35
2018-07-16T08:13:00.952Z,35
2018-07-16T08:13:21.124Z,35
2018-07-16T08:13:41.302Z,35
2018-07-16T08:14:01.465Z,35
2018-07-16T08:14:21.652Z,35
2018-07-16T08:14:41.846Z,35
2018-07-16T08:15:02.004Z,40
2018-07-16T08:15:22.683Z,35
2018-07-16T08:15:42.834Z,35
2018-07-16T08:16:03.006Z,35
2018-07-16T08:16:23.183Z,35
2018-07-16T08:16:43.321Z,35
2018-07-16T08:17:03.489Z,35
2018-07-16T08:17:23.638Z,35
2018-07-16T08:17:43.844Z,35
2018-07-16T08:18:04.035Z,35
2018-07-16T08:18:24.195Z,35
2018-07-16T08:18:44.360Z,35
2018-07-16T08:19:04.575Z,35
2018-07-16T08:19:24.737Z,35
2018-07-16T08:19:44.900Z,35
2018-07-16T08:20:05.069Z,35
2018-07-16T08:20:25.250Z,35
2018-07-16T08:20:45.421Z,35
2018-07-16T08:21:06.025Z,35
2018-07-16T08:21:26.118Z,35
2018-07-16T08:21:46.284Z,35
2018-07-16T08:22:06.798Z,35
2018-07-16T08:22:26.981Z,35
2018-07-16T08:22:47.149Z,35
2018-07-16T08:23:07.330Z,35
2018-07-16T08:23:27.484Z,35
2018-07-16T08:23:47.653Z,35
2018-07-16T08:24:07.848Z,35
2018-07-16T08:24:28.035Z,35
2018-07-16T08:24:48.218Z,35
2018-07-16T08:25:08.447Z,35
2018-07-16T08:25:28.601Z,35
2018-07-16T08:25:48.835Z,35
2018-07-16T08:26:09.005Z,35
2018-07-16T08:26:29.147Z,35
2018-07-16T08:26:49.297Z,35
2018-07-16T08:27:09.452Z,35
2018-07-16T08:27:29.584Z,35
2018-07-16T08:27:49.738Z,35
2018-07-16T08:28:09.957Z,35
2018-07-16T08:28:30.098Z,35
2018-07-16T08:28:50.267Z,35
2018-07-16T08:29:10.441Z,35
2018-07-16T08:29:30.621Z,35
2018-07-16T08:29:50.767Z,35
2018-07-16T08:30:10.958Z,35
2018-07-16T08:30:31.188Z,35
2018-07-16T08:30:51.338Z,35
2018-07-16T08:31:11.505Z,35
2018-07-16T08:31:31.669Z,35
2018-07-16T08:31:51.840Z,35
2018-07-16T08:32:12.047Z,35
2018-07-16T08:32:32.233Z,35
2018-07-16T08:32:52.389Z,35
2018-07-16T08:33:12.552Z,35
2018-07-16T08:33:32.732Z,35
2018-07-16T08:33:52.907Z,35
2018-07-16T08:34:13.095Z,35
2018-07-16T08:34:33.288Z,35
2018-07-16T08:34:53.443Z,35
2018-07-16T08:35:13.605Z,35
2018-07-16T08:35:33.854Z,35
2018-07-16T08:35:54.692Z,35
2018-07-16T08:36:14.849Z,35
2018-07-16T08:36:35.014Z,35
2018-07-16T08:36:55.165Z,35
2018-07-16T08:37:15.333Z,35
2018-07-16T08:37:35.519Z,35
2018-07-16T08:37:55.704Z,35
2018-07-16T08:38:15.901Z,35
2018-07-16T08:38:36.094Z,35
2018-07-16T08:38:56.240Z,35
2018-07-16T08:39:16.405Z,35
2018-07-16T08:39:36.574Z,35
2018-07-16T08:39:56.770Z,35
2018-07-16T08:40:16.926Z,35
2018-07-16T08:40:37.093Z,35
2018-07-16T08:40:57.232Z,35
2018-07-16T08:41:17.402Z,35
2018-07-16T08:41:38.597Z,35
2018-07-16T08:41:58.785Z,35
2018-07-16T08:42:18.941Z,35
2018-07-16T08:42:39.105Z,35
2018-07-16T08:42:59.275Z,35
2018-07-16T08:43:19.451Z,35
2018-07-16T08:43:39.612Z,35
2018-07-16T08:43:59.753Z,35
2018-07-16T08:44:19.930Z,35
2018-07-16T08:44:40.094Z,35
2018-07-16T08:45:00.276Z,35
2018-07-16T08:45:20.444Z,35
2018-07-16T08:45:40.609Z,35
2018-07-16T08:46:00.787Z,35
2018-07-16T08:46:21.000Z,35
2018-07-16T08:46:41.200Z,35
2018-07-16T08:47:01.343Z,35
2018-07-16T08:47:21.509Z,35
2018-07-16T08:47:41.678Z,35
2018-07-16T08:48:01.859Z,35
2018-07-16T08:48:22.037Z,35
2018-07-16T08:48:42.197Z,35
2018-07-16T08:49:02.390Z,35
2018-07-16T08:49:22.515Z,35
2018-07-16T08:49:42.729Z,35
2018-07-16T08:50:02.955Z,35
2018-07-16T08:50:23.125Z,35
2018-07-16T08:50:43.272Z,35
2018-07-16T08:51:03.467Z,35
2018-07-16T08:51:23.758Z,35
2018-07-16T08:51:43.931Z,35
2018-07-16T08:52:04.069Z,35
2018-07-16T08:52:24.243Z,35
2018-07-16T08:52:44.527Z,35
2018-07-16T08:53:04.659Z,35
2018-07-16T08:53:24.856Z,35
2018-07-16T08:53:45.052Z,35
2018-07-16T08:54:05.205Z,35
2018-07-16T08:54:25.471Z,35
2018-07-16T08:54:45.602Z,35
2018-07-16T08:55:05.812Z,35
2018-07-16T08:55:25.956Z,40
2018-07-16T08:55:46.190Z,35
2018-07-16T08:56:06.356Z,35
2018-07-16T08:56:26.536Z,35
2018-07-16T08:56:46.709Z,35
2018-07-16T08:57:06.975Z,35
2018-07-16T08:57:27.151Z,35
2018-07-16T08:57:47.302Z,35
2018-07-16T08:58:07.472Z,40
2018-07-16T08:58:27.635Z,35
2018-07-16T08:58:47.822Z,35
2018-07-16T08:59:08.077Z,35
2018-07-16T08:59:28.277Z,35
2018-07-16T08:59:48.502Z,35
2018-07-16T09:00:08.639Z,35
2018-07-16T09:00:28.863Z,35
2018-07-16T09:00:49.046Z,35
2018-07-16T09:01:09.200Z,35
2018-07-16T09:01:29.434Z,35
2018-07-16T09:01:49.571Z,35
2018-07-16T09:02:09.733Z,35
2018-07-16T09:02:29.899Z,35
2018-07-16T09:02:50.068Z,35
2018-07-16T09:03:10.292Z,40
2018-07-16T09:03:30.467Z,40
2018-07-16T09:03:50.667Z,40
2018-07-16T09:04:10.943Z,40
2018-07-16T09:04:31.066Z,40
2018-07-16T09:04:51.235Z,40
2018-07-16T09:05:11.460Z,40
2018-07-16T09:05:31.557Z,40
2018-07-16T09:05:51.734Z,40
2018-07-16T09:06:11.892Z,40
2018-07-16T09:06:32.049Z,40
2018-07-16T09:06:52.200Z,40
2018-07-16T09:07:12.400Z,40
2018-07-16T09:07:32.548Z,40
2018-07-16T09:07:52.698Z,35
2018-07-16T09:08:12.912Z,40
2018-07-16T09:08:33.114Z,40
2018-07-16T09:08:53.313Z,40
2018-07-16T09:09:13.473Z,40
2018-07-16T09:09:33.702Z,40
2018-07-16T09:09:53.848Z,40
2018-07-16T09:10:14.027Z,40
2018-07-16T09:10:34.208Z,40
2018-07-16T09:10:54.439Z,40
2018-07-16T09:11:14.663Z,40
2018-07-16T09:11:34.881Z,40
2018-07-16T09:11:55.092Z,40
2018-07-16T09:12:15.273Z,40
2018-07-16T09:12:35.472Z,40
2018-07-16T09:12:55.646Z,40
2018-07-16T09:13:15.848Z,40
2018-07-16T09:13:36.177Z,40
2018-07-16T09:13:56.378Z,40
2018-07-16T09:14:16.542Z,40
2018-07-16T09:14:36.726Z,40
2018-07-16T09:14:56.878Z,40
2018-07-16T09:15:17.076Z,40
2018-07-16T09:15:37.272Z,40
2018-07-16T09:15:57.442Z,40
2018-07-16T09:16:17.594Z,40
2018-07-16T09:16:37.789Z,40
2018-07-16T09:16:57.968Z,40
2018-07-16T09:17:18.269Z,40
2018-07-16T09:17:38.443Z,40
2018-07-16T09:17:58.607Z,40
2018-07-16T09:18:18.768Z,40
2018-07-16T09:18:38.965Z,40
2018-07-16T09:18:59.122Z,40
2018-07-16T09:19:19.402Z,40
2018-07-16T09:19:39.617Z,40
2018-07-16T09:19:59.821Z,40
2018-07-16T09:20:20.040Z,40
2018-07-16T09:20:40.199Z,40
2018-07-16T09:21:00.353Z,40
2018-07-16T09:21:20.497Z,40
2018-07-16T09:21:40.662Z,40
2018-07-16T09:22:00.825Z,40
2018-07-16T09:22:20.964Z,40
2018-07-16T09:22:41.137Z,40
2018-07-16T09:23:01.396Z,40
2018-07-16T09:23:21.619Z,40
2018-07-16T09:23:41.839Z,40
2018-07-16T09:24:01.991Z,40
2018-07-16T09:24:22.145Z,40
2018-07-16T09:24:42.341Z,40
2018-07-16T09:25:02.512Z,40
2018-07-16T09:25:22.684Z,40
2018-07-16T09:25:42.838Z,40
2018-07-16T09:26:02.973Z,40
2018-07-16T09:26:23.168Z,40
2018-07-16T09:26:43.324Z,40
2018-07-16T09:27:03.531Z,40
2018-07-16T09:27:23.757Z,40
2018-07-16T09:27:43.933Z,40
2018-07-16T09:28:04.124Z,40
2018-07-16T09:28:24.363Z,40
2018-07-16T09:28:44.560Z,40
2018-07-16T09:29:04.714Z,40
2018-07-16T09:29:24.853Z,40
2018-07-16T09:29:45.038Z,45
2018-07-16T09:30:05.231Z,40
2018-07-16T09:30:25.392Z,40
2018-07-16T09:30:45.620Z,40
2018-07-16T09:31:05.724Z,40
2018-07-16T09:31:25.879Z,45
2018-07-16T09:31:46.080Z,45
2018-07-16T09:32:06.238Z,45
2018-07-16T09:32:26.374Z,45
2018-07-16T09:32:46.660Z,45
2018-07-16T09:33:06.767Z,45
2018-07-16T09:33:26.922Z,45
2018-07-16T09:33:47.095Z,45
2018-07-16T09:34:07.266Z,45
2018-07-16T09:34:27.414Z,45
2018-07-16T09:34:47.574Z,45
2018-07-16T09:35:07.744Z,45
2018-07-16T09:35:27.885Z,45
2018-07-16T09:35:48.051Z,45
2018-07-16T09:36:08.208Z,45
2018-07-16T09:36:28.362Z,45
2018-07-16T09:36:48.526Z,45
2018-07-16T09:37:08.684Z,45
2018-07-16T09:37:28.852Z,45
2018-07-16T09:37:48.993Z,45
2018-07-16T09:38:09.173Z,45
2018-07-16T09:38:29.371Z,45
2018-07-16T09:38:49.533Z,45
2018-07-16T09:39:09.941Z,45
2018-07-16T09:39:30.063Z,45
2018-07-16T09:39:50.223Z,45
2018-07-16T09:40:10.426Z,45
2018-07-16T09:40:30.565Z,45
2018-07-16T09:40:50.709Z,45
2018-07-16T09:41:10.871Z,45
2018-07-16T09:41:31.042Z,45
2018-07-16T09:41:51.219Z,45
2018-07-16T09:42:11.372Z,45
2018-07-16T09:42:31.537Z,45
2018-07-16T09:42:51.695Z,45
2018-07-16T09:43:12.030Z,45
2018-07-16T09:43:32.207Z,45
2018-07-16T09:43:52.320Z,45
2018-07-16T09:44:12.483Z,45
2018-07-16T09:44:32.713Z,45
2018-07-16T09:44:52.834Z,45
2018-07-16T09:45:12.999Z,45
2018-07-16T09:45:33.155Z,45
2018-07-16T09:45:53.322Z,45
2018-07-16T09:46:13.494Z,45
2018-07-16T09:46:33.643Z,45
2018-07-16T09:46:53.798Z,45
2018-07-16T09:47:13.960Z,45
2018-07-16T09:47:34.122Z,45
2018-07-16T09:47:54.264Z,45
2018-07-16T09:48:14.457Z,45
2018-07-16T09:48:34.616Z,45
2018-07-16T09:48:54.787Z,45
2018-07-16T09:49:14.975Z,50
2018-07-16T09:49:35.133Z,50
2018-07-16T09:49:55.288Z,50
2018-07-16T09:50:15.461Z,50
2018-07-16T09:50:35.615Z,50
2018-07-16T09:50:55.736Z,50
2018-07-16T09:51:15.919Z,50
2018-07-16T09:51:36.099Z,50
2018-07-16T09:51:56.270Z,50
2018-07-16T09:52:16.464Z,50
2018-07-16T09:52:36.617Z,50
2018-07-16T09:52:56.786Z,50
2018-07-16T09:53:16.952Z,50
2018-07-16T09:53:37.115Z,50
2018-07-16T09:53:57.298Z,50
2018-07-16T09:54:17.515Z,50
2018-07-16T09:54:37.648Z,50
2018-07-16T09:54:57.792Z,50
2018-07-16T09:55:17.946Z,50
2018-07-16T09:55:38.093Z,50
2018-07-16T09:55:58.317Z,50
2018-07-16T09:56:18.468Z,55
2018-07-16T09:56:38.620Z,50
2018-07-16T09:56:58.781Z,50
2018-07-16T09:57:18.943Z,50
2018-07-16T09:57:39.127Z,50
2018-07-16T09:57:59.270Z,50
2018-07-16T09:58:19.461Z,55
2018-07-16T09:58:39.642Z,55
2018-07-16T09:58:59.851Z,50
2018-07-16T09:59:20.091Z,50
2018-07-16T09:59:40.259Z,55
2018-07-16T10:00:00.466Z,50
2018-07-16T10:00:20.604Z,50
2018-07-16T10:00:40.774Z,45
2018-07-16T10:01:00.934Z,45
2018-07-16T10:01:21.095Z,45
2018-07-16T10:01:41.246Z,50
2018-07-16T10:02:01.438Z,50
2018-07-16T10:02:21.573Z,50
2018-07-16T10:02:41.763Z,45
2018-07-16T10:03:01.905Z,50
2018-07-16T10:03:22.078Z,55
2018-07-16T10:03:42.276Z,50
2018-07-16T10:04:02.418Z,50
2018-07-16T10:04:22.578Z,50
2018-07-16T10:04:42.751Z,40
2018-07-16T10:05:02.885Z,45
2018-07-16T10:05:23.024Z,40
2018-07-16T10:05:43.218Z,45
2018-07-16T10:06:03.358Z,50
2018-07-16T10:06:23.543Z,50
2018-07-16T10:06:43.694Z,50
2018-07-16T10:07:03.907Z,50
2018-07-16T10:07:24.084Z,50
2018-07-16T10:07:44.254Z,50
2018-07-16T10:08:04.458Z,50
2018-07-16T10:08:24.837Z,50
2018-07-16T10:08:44.969Z,50
2018-07-16T10:09:05.208Z,50
2018-07-16T10:09:25.364Z,50
2018-07-16T10:09:45.600Z,50
2018-07-16T10:10:05.801Z,50
2018-07-16T10:10:25.970Z,50
2018-07-16T10:10:46.133Z,50
2018-07-16T10:11:06.320Z,50
2018-07-16T10:11:26.552Z,50
2018-07-16T10:11:46.813Z,50
2018-07-16T10:12:07.018Z,50
2018-07-16T10:12:27.224Z,50
2018-07-16T10:12:47.457Z,50
2018-07-16T10:13:07.610Z,50
2018-07-16T10:13:27.807Z,50
2018-07-16T10:13:47.994Z,50
2018-07-16T10:14:08.129Z,50
2018-07-16T10:14:28.286Z,50
2018-07-16T10:14:48.471Z,50
2018-07-16T10:15:08.668Z,50
2018-07-16T10:15:28.841Z,50
2018-07-16T10:15:48.989Z,50
2018-07-16T10:16:09.147Z,45
2018-07-16T10:16:29.323Z,45
2018-07-16T10:16:49.524Z,45
2018-07-16T10:17:09.701Z,40
2018-07-16T10:17:29.832Z,40